createdAt,value
2022-12-22T00:00:42.236Z,54.30
2022-12-22T00:03:32.780Z,58.50
2022-12-22T00:06:20.277Z,58.20
2022-12-22T00:09:08.903Z,56.95
2022-12-22T00:11:59.716Z,61.33
2022-12-22T00:14:44.834Z,60.47
2022-12-22T00:17:41.017Z,59.10
2022-12-22T00:20:39.354Z,57.83
2022-12-22T00:23:33.621Z,54.45
2022-12-22T00:26:19.076Z,57.78
2022-12-22T00:29:07.661Z,58.55
2022-12-22T00:31:53.085Z,59.22
2022-12-22T00:34:40.236Z,65.53
2022-12-22T00:37:30.664Z,63.17
2022-12-22T00:40:19.736Z,61.47
2022-12-22T00:43:07.697Z,60.78
2022-12-22T00:45:56.499Z,62.97
2022-12-22T00:48:45.179Z,65.30
2022-12-22T00:51:31.248Z,61.05
2022-12-22T00:54:18.697Z,61.58
2022-12-22T00:57:06.209Z,66.05
2022-12-22T00:59:54.852Z,65.78
2022-12-22T01:02:40.433Z,62.47
2022-12-22T01:05:26.642Z,67.72
2022-12-22T01:08:12.308Z,67.13
2022-12-22T01:10:57.442Z,65.78
2022-12-22T01:13:46.663Z,69.00
2022-12-22T01:16:35.659Z,69.78
2022-12-22T01:19:21.246Z,70.55
2022-12-22T01:22:06.553Z,67.70
2022-12-22T01:24:54.297Z,69.85
2022-12-22T01:27:42.571Z,70.72
2022-12-22T01:30:29.028Z,74.28
2022-12-22T01:33:14.566Z,74.75
2022-12-22T01:36:00.897Z,76.97
2022-12-22T01:38:48.272Z,73.63
2022-12-22T01:41:38.484Z,76.72
2022-12-22T01:44:34.686Z,74.10
2022-12-22T01:47:48.132Z,79.32
2022-12-22T01:50:46.046Z,81.00
2022-12-22T01:53:37.324Z,76.03
2022-12-22T01:56:23.228Z,81.07
2022-12-22T01:59:14.016Z,81.15
2022-12-22T02:02:00.522Z,84.05
2022-12-22T02:04:53.006Z,81.38
2022-12-22T02:08:05.790Z,80.30
2022-12-22T02:11:30.735Z,81.88
2022-12-22T02:14:34.868Z,78.43
2022-12-22T02:17:43.043Z,74.53
2022-12-22T02:20:53.435Z,79.63
2022-12-22T02:23:47.998Z,79.70
2022-12-22T02:26:45.982Z,69.60
2022-12-22T02:29:33.936Z,78.25
2022-12-22T02:32:22.858Z,81.95
2022-12-22T02:35:08.104Z,79.80
2022-12-22T02:38:10.896Z,71.95
2022-12-22T02:41:02.453Z,81.60
2022-12-22T02:44:09.531Z,105.78
2022-12-22T02:47:15.992Z,84.20
2022-12-22T02:50:33.032Z,87.00
2022-12-22T02:53:19.807Z,84.97
2022-12-22T02:56:07.906Z,89.43
2022-12-22T02:58:56.821Z,82.70
2022-12-22T03:01:42.318Z,86.35
2022-12-22T03:04:27.849Z,82.10
2022-12-22T03:07:13.538Z,85.95
2022-12-22T03:09:58.697Z,83.03
2022-12-22T03:12:46.429Z,89.03
2022-12-22T03:15:31.797Z,90.22
2022-12-22T03:18:26.002Z,92.60
2022-12-22T03:21:14.288Z,91.40
2022-12-22T03:24:02.555Z,95.93
2022-12-22T03:26:30.529Z,95.22
2022-12-22T03:28:57.402Z,91.00
2022-12-22T03:31:28.844Z,108.60
2022-12-22T03:33:55.651Z,89.47
2022-12-22T03:36:24.900Z,93.40
2022-12-22T03:38:53.777Z,91.82
2022-12-22T03:41:39.042Z,89.68
2022-12-22T03:44:24.480Z,89.80
2022-12-22T03:46:53.986Z,82.35
2022-12-22T03:49:26.221Z,87.18
2022-12-22T03:51:56.680Z,80.43
2022-12-22T03:54:27.031Z,86.20
2022-12-22T03:56:57.491Z,82.30
2022-12-22T03:59:24.235Z,89.55
2022-12-22T04:01:53.402Z,84.80
2022-12-22T04:04:25.060Z,81.82
2022-12-22T04:06:54.504Z,82.80
2022-12-22T04:09:24.924Z,76.70
2022-12-22T04:12:10.447Z,78.50
2022-12-22T04:14:39.524Z,72.93
2022-12-22T04:17:09.703Z,69.28
2022-12-22T04:19:38.714Z,75.93
2022-12-22T04:22:07.696Z,70.22
2022-12-22T04:24:39.072Z,73.50
2022-12-22T04:27:08.890Z,67.40
2022-12-22T04:29:37.801Z,63.67
2022-12-22T04:32:04.677Z,63.30
2022-12-22T04:34:33.930Z,68.95
2022-12-22T04:37:12.995Z,85.40
2022-12-22T04:39:45.858Z,89.35
2022-12-22T04:42:14.811Z,83.47
2022-12-22T04:44:46.771Z,89.65
2022-12-22T04:47:16.827Z,97.63
2022-12-22T04:49:46.158Z,108.88
2022-12-22T04:52:12.986Z,94.95
2022-12-22T04:54:41.919Z,94.18
2022-12-22T04:57:09.723Z,91.57
2022-12-22T04:59:41.721Z,88.93
2022-12-22T05:02:09.551Z,118.07
2022-12-22T05:04:36.351Z,87.22
2022-12-22T05:07:03.496Z,83.75
2022-12-22T05:09:32.571Z,72.60
2022-12-22T05:12:21.893Z,97.25
2022-12-22T05:14:48.646Z,90.75
2022-12-22T05:17:15.583Z,87.38
2022-12-22T05:19:44.625Z,91.57
2022-12-22T05:22:16.845Z,88.55
2022-12-22T05:24:43.567Z,82.07
2022-12-22T05:27:12.143Z,99.30
2022-12-22T05:29:38.877Z,68.97
2022-12-22T05:32:10.577Z,76.25
2022-12-22T05:37:14.043Z,70.88
2022-12-22T05:39:40.799Z,68.57
2022-12-22T05:42:07.554Z,76.50
2022-12-22T05:44:34.292Z,76.18
2022-12-22T05:47:03.925Z,55.30
2022-12-22T05:49:32.888Z,55.05
2022-12-22T05:51:59.627Z,58.50
2022-12-22T05:54:31.283Z,58.28
2022-12-22T05:59:27.036Z,55.00
2022-12-22T06:01:56.621Z,54.35
2022-12-22T06:04:25.693Z,52.63
2022-12-22T06:06:55.122Z,50.60
2022-12-22T06:09:24.892Z,48.85
2022-12-22T06:11:56.235Z,51.17
2022-12-22T06:14:28.250Z,66.78
2022-12-22T06:16:55.216Z,55.67
2022-12-22T06:19:27.165Z,49.00
2022-12-22T06:21:53.917Z,53.90
2022-12-22T06:24:23.758Z,57.22
2022-12-22T06:26:50.665Z,44.70
2022-12-22T06:29:19.833Z,53.90
2022-12-22T06:31:52.289Z,39.50
2022-12-22T06:34:19.298Z,39.47
2022-12-22T06:36:46.845Z,40.05
2022-12-22T06:39:17.128Z,36.00
2022-12-22T06:42:05.073Z,35.30
2022-12-22T06:44:33.931Z,34.10
2022-12-22T06:47:03.739Z,36.92
2022-12-22T06:49:32.775Z,35.22
2022-12-22T06:52:02.395Z,34.72
2022-12-22T06:54:31.442Z,34.53
2022-12-22T06:56:58.234Z,36.80
2022-12-22T06:59:27.860Z,32.58
2022-12-22T07:01:57.201Z,33.53
2022-12-22T07:04:23.999Z,32.17
2022-12-22T07:06:56.392Z,36.65
2022-12-22T07:09:25.779Z,31.80
2022-12-22T07:11:55.137Z,31.55
2022-12-22T07:14:24.186Z,29.73
2022-12-22T07:16:55.835Z,30.80
2022-12-22T07:19:22.654Z,23.75
2022-12-22T07:21:51.053Z,22.20
2022-12-22T07:24:23.167Z,22.05
2022-12-22T07:26:52.816Z,24.15
2022-12-22T07:29:22.863Z,23.83
2022-12-22T07:31:49.666Z,31.30
2022-12-22T07:34:20.906Z,31.05
2022-12-22T07:36:47.925Z,32.83
2022-12-22T07:39:14.804Z,34.78
2022-12-22T07:41:59.970Z,35.95
2022-12-22T07:44:26.871Z,29.35
2022-12-22T07:46:59.113Z,41.60
2022-12-22T07:49:44.438Z,38.88
2022-12-22T07:52:11.139Z,34.88
2022-12-22T07:54:41.720Z,39.30
2022-12-22T07:57:11.472Z,43.90
2022-12-22T07:59:40.481Z,38.22
2022-12-22T08:02:12.125Z,37.55
2022-12-22T08:07:18.091Z,32.17
2022-12-22T08:09:45.100Z,33.80
2022-12-22T08:12:14.095Z,30.38
2022-12-22T08:14:45.841Z,27.67
2022-12-22T08:19:41.786Z,21.08
2022-12-22T08:22:08.734Z,21.92
2022-12-22T08:24:37.818Z,15.48
2022-12-22T08:27:13.804Z,18.33
2022-12-22T08:29:49.077Z,17.08
2022-12-22T08:32:18.572Z,18.15
2022-12-22T08:34:45.520Z,15.48
2022-12-22T08:37:16.381Z,17.60
2022-12-22T08:39:48.319Z,15.93
2022-12-22T08:42:18.411Z,19.42
2022-12-22T08:44:47.262Z,11.88
2022-12-22T08:47:17.872Z,16.60
2022-12-22T08:49:47.005Z,17.92
2022-12-22T08:52:18.597Z,17.58
2022-12-22T08:54:48.335Z,17.38
2022-12-22T08:57:17.400Z,21.55
2022-12-22T08:59:44.208Z,18.85
2022-12-22T09:02:10.990Z,28.73
2022-12-22T09:04:37.890Z,22.25
2022-12-22T09:07:05.240Z,24.33
2022-12-22T09:09:33.350Z,18.45
2022-12-22T09:12:02.241Z,21.65
2022-12-22T09:14:30.436Z,21.02
2022-12-22T09:16:57.403Z,20.33
2022-12-22T09:19:24.200Z,25.85
2022-12-22T09:21:53.284Z,20.65
2022-12-22T09:24:20.036Z,19.48
2022-12-22T09:26:47.118Z,21.25
2022-12-22T09:29:16.904Z,23.38
2022-12-22T09:31:44.185Z,21.95
2022-12-22T09:34:17.188Z,23.85
2022-12-22T09:36:50.195Z,21.40
2022-12-22T09:39:18.406Z,20.45
2022-12-22T09:41:57.889Z,17.67
2022-12-22T09:44:30.247Z,17.75
2022-12-22T09:47:00.699Z,14.60
2022-12-22T09:49:28.287Z,21.90
2022-12-22T09:51:58.876Z,12.43
2022-12-22T09:54:31.603Z,15.48
2022-12-22T09:57:01.461Z,14.55
2022-12-22T09:59:29.193Z,14.40
2022-12-22T10:02:07.516Z,14.20
2022-12-22T10:04:59.542Z,11.57
2022-12-22T10:10:31.461Z,18.83
2022-12-22T10:13:01.331Z,15.45
2022-12-22T10:15:39.448Z,19.55
2022-12-22T10:18:29.251Z,13.98
2022-12-22T10:21:04.308Z,15.32
2022-12-22T10:23:38.609Z,15.30
2022-12-22T10:26:28.838Z,13.73
2022-12-22T10:29:17.291Z,18.00
2022-12-22T10:31:58.268Z,12.20
2022-12-22T10:34:31.323Z,12.02
2022-12-22T10:37:06.068Z,12.93
2022-12-22T10:39:35.523Z,15.10
2022-12-22T10:42:13.738Z,14.73
2022-12-22T10:44:47.738Z,12.50
2022-12-22T10:47:24.641Z,13.35
2022-12-22T10:52:30.906Z,13.98
2022-12-22T10:55:29.369Z,14.77
2022-12-22T10:58:16.738Z,23.33
2022-12-22T11:00:45.165Z,21.25
2022-12-22T11:03:28.556Z,21.90
2022-12-22T11:05:57.744Z,24.08
2022-12-22T11:08:25.379Z,25.67
2022-12-22T11:11:06.916Z,25.60
2022-12-22T11:13:58.770Z,29.83
2022-12-22T11:16:40.504Z,32.70
2022-12-22T11:21:57.853Z,32.42
2022-12-22T11:24:59.631Z,31.85
2022-12-22T11:27:40.764Z,33.83
2022-12-22T11:30:17.353Z,32.65
2022-12-22T11:33:02.863Z,31.35
2022-12-22T11:35:44.157Z,35.90
2022-12-22T11:38:24.985Z,38.13
2022-12-22T11:41:04.543Z,35.53
2022-12-22T11:43:44.672Z,36.85
2022-12-22T11:46:30.989Z,26.08
2022-12-22T11:49:06.608Z,30.35
2022-12-22T11:52:03.769Z,31.23
2022-12-22T11:55:00.050Z,28.98
2022-12-22T11:57:44.623Z,31.65
2022-12-22T12:00:28.370Z,30.58
2022-12-22T12:03:45.476Z,31.48
2022-12-22T12:06:34.565Z,32.63
2022-12-22T12:09:16.690Z,33.10
2022-12-22T12:11:50.485Z,36.08
2022-12-22T12:14:37.762Z,33.72
2022-12-22T12:17:49.044Z,39.22
2022-12-22T12:20:34.696Z,38.30
2022-12-22T12:23:29.847Z,40.13
2022-12-22T12:26:14.762Z,49.38
2022-12-22T12:28:58.920Z,41.13
2022-12-22T12:31:32.560Z,44.67
2022-12-22T12:34:02.057Z,45.90
2022-12-22T12:36:49.724Z,44.60
2022-12-22T12:39:34.023Z,41.47
2022-12-22T12:42:25.639Z,44.60
2022-12-22T12:44:56.290Z,46.13
2022-12-22T12:47:34.636Z,44.50
2022-12-22T12:50:20.834Z,47.90
2022-12-22T12:52:52.720Z,46.83
2022-12-22T12:55:53.210Z,48.00
2022-12-22T12:58:35.455Z,47.97
2022-12-22T13:01:05.027Z,50.60
2022-12-22T13:04:01.671Z,45.92
2022-12-22T13:06:57.600Z,45.92
2022-12-22T13:09:50.099Z,46.35
2022-12-22T13:12:34.604Z,47.80
2022-12-22T13:15:01.888Z,44.40
2022-12-22T13:17:50.355Z,46.22
2022-12-22T13:20:24.476Z,48.40
2022-12-22T13:22:56.977Z,47.30
2022-12-22T13:25:27.128Z,45.45
2022-12-22T13:27:58.202Z,49.72
2022-12-22T13:30:28.419Z,43.35
2022-12-22T13:32:56.390Z,46.40
2022-12-22T13:35:32.428Z,44.72
2022-12-22T13:38:03.324Z,39.03
2022-12-22T13:40:39.397Z,42.60
2022-12-22T13:43:15.817Z,40.33
2022-12-22T13:45:49.092Z,37.40
2022-12-22T13:48:44.115Z,37.53
2022-12-22T13:51:23.543Z,42.72
2022-12-22T13:54:31.934Z,37.85
2022-12-22T13:57:01.540Z,37.90
2022-12-22T13:59:31.677Z,38.50
2022-12-22T14:02:20.343Z,38.85
2022-12-22T14:05:10.151Z,39.92
2022-12-22T14:07:37.327Z,37.92
2022-12-22T14:10:04.744Z,38.50
2022-12-22T14:12:39.018Z,43.13
2022-12-22T14:15:15.126Z,45.38
2022-12-22T14:17:46.191Z,44.70
2022-12-22T14:20:27.514Z,47.38
2022-12-22T14:23:00.160Z,49.28
2022-12-22T14:25:34.567Z,45.65
2022-12-22T14:28:02.455Z,47.80
2022-12-22T14:30:39.067Z,49.67
2022-12-22T14:33:28.635Z,52.33
2022-12-22T14:36:11.760Z,50.65
2022-12-22T14:38:41.132Z,52.42
2022-12-22T14:41:46.896Z,50.60
2022-12-22T14:44:22.547Z,47.63
2022-12-22T14:47:11.810Z,46.15
2022-12-22T14:49:51.552Z,49.92
2022-12-22T14:52:45.998Z,52.10
2022-12-22T14:55:44.092Z,52.17
2022-12-22T14:58:15.043Z,52.20
2022-12-22T15:00:43.954Z,53.83
2022-12-22T15:03:33.342Z,53.28
2022-12-22T15:06:24.719Z,47.33
2022-12-22T15:08:53.426Z,48.97
2022-12-22T15:11:24.053Z,53.85
2022-12-22T15:13:51.818Z,48.85
2022-12-22T15:16:21.604Z,47.00
2022-12-22T15:18:49.506Z,54.83
2022-12-22T15:21:20.566Z,56.97
2022-12-22T15:23:50.382Z,52.75
2022-12-22T15:26:19.681Z,51.08
2022-12-22T15:28:49.941Z,48.90
2022-12-22T15:31:17.639Z,53.38
2022-12-22T15:33:48.093Z,50.42
2022-12-22T15:36:17.553Z,49.95
2022-12-22T15:38:49.407Z,54.00
2022-12-22T15:41:16.174Z,46.47
2022-12-22T15:43:59.367Z,44.63
2022-12-22T15:46:28.761Z,54.75
2022-12-22T15:48:55.666Z,41.40
2022-12-22T15:51:28.279Z,43.50
2022-12-22T15:54:00.214Z,53.25
2022-12-22T15:56:34.193Z,47.85
2022-12-22T15:59:04.861Z,75.32
2022-12-22T16:01:31.668Z,133.25
2022-12-22T16:04:01.531Z,119.13
2022-12-22T16:06:31.518Z,40.03
2022-12-22T16:08:58.984Z,41.50
2022-12-22T16:11:25.631Z,43.00
2022-12-22T16:13:54.967Z,50.38
2022-12-22T16:16:24.618Z,46.50
2022-12-22T16:18:54.633Z,42.35
2022-12-22T16:21:30.968Z,45.60
2022-12-22T16:24:01.561Z,45.95
2022-12-22T16:26:28.579Z,43.97
2022-12-22T16:28:55.480Z,46.00
2022-12-22T16:31:24.553Z,45.00
2022-12-22T16:33:55.087Z,48.78
2022-12-22T16:36:24.876Z,42.17
2022-12-22T16:38:57.395Z,46.25
2022-12-22T16:41:27.526Z,44.35
2022-12-22T16:46:40.118Z,40.38
2022-12-22T16:49:09.148Z,39.92
2022-12-22T16:51:40.273Z,45.50
2022-12-22T16:54:07.370Z,42.85
2022-12-22T16:56:36.488Z,36.67
2022-12-22T16:59:04.599Z,43.35
2022-12-22T17:01:37.715Z,41.85
2022-12-22T17:04:12.172Z,39.90
2022-12-22T17:06:42.307Z,37.95
2022-12-22T17:09:15.996Z,39.25
2022-12-22T17:11:45.810Z,38.13
2022-12-22T17:14:34.820Z,36.03
2022-12-22T17:17:01.628Z,34.72
2022-12-22T17:19:33.285Z,34.30
2022-12-22T17:24:31.370Z,25.30
2022-12-22T17:27:06.161Z,28.60
2022-12-22T17:29:35.112Z,27.00
2022-12-22T17:32:07.650Z,30.35
2022-12-22T17:34:34.459Z,32.58
2022-12-22T17:37:03.622Z,29.77
2022-12-22T17:39:32.654Z,32.17
2022-12-22T17:42:17.524Z,33.67
2022-12-22T17:44:45.003Z,31.13
2022-12-22T17:47:30.512Z,31.35
2022-12-22T17:49:59.189Z,29.77
2022-12-22T17:52:28.429Z,33.78
2022-12-22T17:54:57.950Z,31.73
2022-12-22T17:57:29.724Z,31.70
2022-12-22T17:59:58.762Z,31.42
2022-12-22T18:02:29.481Z,30.98
2022-12-22T18:05:01.775Z,27.67
2022-12-22T18:07:28.646Z,32.45
2022-12-22T18:09:59.731Z,30.10
2022-12-22T18:12:27.145Z,30.65
2022-12-22T18:14:56.495Z,29.95
2022-12-22T18:17:35.119Z,30.20
2022-12-22T18:20:02.888Z,31.52
2022-12-22T18:22:32.483Z,31.63
2022-12-22T18:25:04.450Z,32.85
2022-12-22T18:27:31.312Z,30.30
2022-12-22T18:30:00.436Z,31.80
2022-12-22T18:32:29.294Z,31.80
2022-12-22T18:34:58.283Z,38.65
2022-12-22T18:37:27.645Z,37.53
2022-12-22T18:39:54.406Z,36.05
2022-12-22T18:42:23.060Z,31.88
2022-12-22T18:44:51.055Z,41.28
2022-12-22T18:47:20.399Z,45.53
2022-12-22T18:49:47.237Z,39.83
2022-12-22T18:52:23.293Z,42.78
2022-12-22T18:54:54.753Z,38.58
2022-12-22T18:57:23.959Z,39.58
2022-12-22T18:59:53.262Z,40.03
2022-12-22T19:02:29.620Z,36.28
2022-12-22T19:04:56.894Z,30.10
2022-12-22T19:07:25.548Z,32.80
2022-12-22T19:09:52.403Z,37.03
2022-12-22T19:12:23.098Z,33.88
2022-12-22T19:14:53.599Z,28.10
2022-12-22T19:17:26.238Z,29.10
2022-12-22T19:19:53.011Z,27.63
2022-12-22T19:22:22.291Z,27.52
2022-12-22T19:24:49.279Z,29.45
2022-12-22T19:27:22.065Z,28.08
2022-12-22T19:29:49.336Z,21.65
2022-12-22T19:32:31.237Z,22.55
2022-12-22T19:34:58.096Z,20.10
2022-12-22T19:37:25.058Z,19.17
2022-12-22T19:39:54.046Z,19.70
2022-12-22T19:42:27.195Z,17.98
2022-12-22T19:44:56.549Z,17.67
2022-12-22T19:47:24.868Z,18.52
2022-12-22T19:49:54.128Z,17.17
2022-12-22T19:52:22.970Z,16.05
2022-12-22T19:54:49.656Z,17.55
2022-12-22T19:57:21.521Z,20.48
2022-12-22T19:59:51.752Z,16.38
2022-12-22T20:02:31.192Z,19.05
2022-12-22T20:05:00.891Z,18.35
2022-12-22T20:07:29.808Z,16.90
2022-12-22T20:09:56.677Z,10.57
2022-12-22T20:12:42.347Z,10.32
2022-12-22T20:15:29.275Z,8.60
2022-12-22T20:18:00.361Z,7.55
2022-12-22T20:20:36.583Z,10.18
2022-12-22T20:23:24.961Z,6.85
2022-12-22T20:25:57.075Z,7.85
2022-12-22T20:28:28.102Z,10.48
2022-12-22T20:30:55.667Z,11.55
2022-12-22T20:33:26.675Z,16.15
2022-12-22T20:35:55.733Z,21.98
2022-12-22T20:38:32.841Z,22.27
2022-12-22T20:41:03.154Z,24.65
2022-12-22T20:43:31.431Z,27.52
2022-12-22T20:46:03.955Z,28.15
2022-12-22T20:48:43.858Z,29.75
2022-12-22T20:51:18.416Z,29.33
2022-12-22T20:53:48.798Z,29.95
2022-12-22T20:56:39.450Z,30.63
2022-12-22T20:59:22.675Z,29.20
2022-12-22T21:01:52.724Z,27.70
2022-12-22T21:04:19.768Z,34.97
2022-12-22T21:06:53.497Z,32.50
2022-12-22T21:09:23.089Z,32.45
2022-12-22T21:11:50.323Z,34.45
2022-12-22T21:14:17.131Z,27.05
2022-12-22T21:16:48.581Z,40.33
2022-12-22T21:19:19.834Z,29.17
2022-12-22T21:21:49.748Z,26.88
2022-12-22T21:24:18.810Z,34.65
2022-12-22T21:26:53.798Z,30.50
2022-12-22T21:29:23.587Z,26.60
2022-12-22T21:31:50.909Z,23.63
2022-12-22T21:34:18.089Z,30.33
2022-12-22T21:36:48.428Z,33.28
2022-12-22T21:39:30.151Z,28.55
2022-12-22T21:42:00.206Z,30.90
2022-12-22T21:44:29.361Z,26.70
2022-12-22T21:47:01.568Z,25.60
2022-12-22T21:49:31.090Z,22.35
2022-12-22T21:52:00.108Z,19.70
2022-12-22T21:54:29.120Z,18.75
2022-12-22T21:56:56.086Z,29.02
2022-12-22T21:59:25.896Z,25.10
2022-12-22T22:01:56.411Z,24.48
2022-12-22T22:04:25.960Z,30.95
2022-12-22T22:06:52.763Z,34.35
2022-12-22T22:09:21.734Z,34.40
2022-12-22T22:12:06.942Z,32.97
2022-12-22T22:14:33.966Z,41.33
2022-12-22T22:17:03.429Z,48.17
2022-12-22T22:19:30.128Z,45.60
2022-12-22T22:21:56.869Z,44.03
2022-12-22T22:24:28.801Z,48.55
2022-12-22T22:26:57.863Z,40.72
2022-12-22T22:29:26.948Z,44.63
2022-12-22T22:31:53.644Z,43.80
2022-12-22T22:34:20.440Z,47.33
2022-12-22T22:36:49.495Z,43.83
2022-12-22T22:39:18.374Z,47.38
2022-12-22T22:41:48.000Z,49.03
2022-12-22T22:44:17.472Z,51.85
2022-12-22T22:46:44.389Z,47.17
2022-12-22T22:49:11.093Z,48.22
2022-12-22T22:51:40.067Z,52.72
2022-12-22T22:54:06.869Z,53.42
2022-12-22T22:56:38.676Z,43.78
2022-12-22T22:59:05.618Z,38.53
2022-12-22T23:01:32.465Z,44.58
2022-12-22T23:03:59.386Z,41.22
2022-12-22T23:06:26.373Z,43.63
2022-12-22T23:08:54.202Z,36.30
2022-12-22T23:11:23.082Z,43.45
2022-12-22T23:13:49.874Z,53.13
2022-12-22T23:16:19.215Z,44.60
2022-12-22T23:18:48.389Z,45.78
2022-12-22T23:21:15.118Z,38.38
2022-12-22T23:23:41.985Z,58.17
2022-12-22T23:26:09.560Z,51.33
2022-12-22T23:28:38.650Z,51.42
2022-12-22T23:31:05.698Z,53.72
2022-12-22T23:33:34.684Z,61.10
2022-12-22T23:36:01.585Z,62.15
2022-12-22T23:38:28.437Z,53.67
2022-12-22T23:41:05.886Z,66.93
2022-12-22T23:43:33.312Z,79.80
2022-12-22T23:46:02.682Z,83.00
2022-12-22T23:48:32.225Z,89.35
2022-12-22T23:50:58.946Z,75.05
2022-12-22T23:53:25.713Z,91.03
2022-12-22T23:55:54.969Z,91.75
2022-12-22T23:58:25.545Z,76.68
